sensor_id;sensor_type;location;lat;lon;timestamp;pressure;altitude;pressure_sealevel;temperature;humidity
5679;BME280;2862;52.560;13.566;2023-02-20T00:07:29;101256.91;;;3.67;88.05
5679;BME280;2862;52.560;13.566;2023-02-20T00:17:34;101242.25;;;3.60;88.94
5679;BME280;2862;52.560;13.566;2023-02-20T00:27:37;101223.75;;;3.60;89.13
5679;BME280;2862;52.560;13.566;2023-02-20T00:37:42;101223.47;;;3.66;88.96
5679;BME280;2862;52.560;13.566;2023-02-20T00:47:46;101212.09;;;3.64;89.17
5679;BME280;2862;52.560;13.566;2023-02-20T00:57:51;101207.31;;;3.53;89.76
5679;BME280;2862;52.560;13.566;2023-02-20T01:07:56;101184.78;;;3.26;91.72
5679;BME280;2862;52.560;13.566;2023-02-20T01:18:01;101178.72;;;3.42;90.82
5679;BME280;2862;52.560;13.566;2023-02-20T01:28:06;101178.94;;;3.38;91.34
5679;BME280;2862;52.560;13.566;2023-02-20T01:38:11;101142.75;;;3.40;91.56
5679;BME280;2862;52.560;13.566;2023-02-20T01:48:19;101139.00;;;3.44;91.49
5679;BME280;2862;52.560;13.566;2023-02-20T01:58:26;101097.63;;;3.43;91.18
5679;BME280;2862;52.560;13.566;2023-02-20T02:08:32;101085.81;;;3.14;92.78
5679;BME280;2862;52.560;13.566;2023-02-20T02:18:51;101080.47;;;3.15;92.99
5679;BME280;2862;52.560;13.566;2023-02-20T02:29:16;101076.03;;;3.16;93.35
5679;BME280;2862;52.560;13.566;2023-02-20T02:39:37;101062.03;;;3.14;93.99
5679;BME280;2862;52.560;13.566;2023-02-20T02:49:47;101039.22;;;3.30;94.05
5679;BME280;2862;52.560;13.566;2023-02-20T02:59:58;101020.31;;;3.39;94.19
5679;BME280;2862;52.560;13.566;2023-02-20T03:10:06;101014.03;;;3.59;93.84
5679;BME280;2862;52.560;13.566;2023-02-20T03:20:14;100988.63;;;3.74;94.63
5679;BME280;2862;52.560;13.566;2023-02-20T03:30:22;100979.94;;;4.05;94.35
5679;BME280;2862;52.560;13.566;2023-02-20T03:40:28;100942.38;;;4.32;95.15
5679;BME280;2862;52.560;13.566;2023-02-20T03:50:50;100936.94;;;4.50;95.17
5679;BME280;2862;52.560;13.566;2023-02-20T04:01:01;100959.75;;;4.69;95.06
5679;BME280;2862;52.560;13.566;2023-02-20T04:11:07;100943.19;;;4.81;95.11
5679;BME280;2862;52.560;13.566;2023-02-20T04:21:18;100918.69;;;4.93;94.65
5679;BME280;2862;52.560;13.566;2023-02-20T04:31:22;100906.88;;;4.99;95.06
5679;BME280;2862;52.560;13.566;2023-02-20T04:41:27;100898.72;;;5.02;95.39
5679;BME280;2862;52.560;13.566;2023-02-20T04:51:32;100881.13;;;5.01;96.05
5679;BME280;2862;52.560;13.566;2023-02-20T05:01:36;100867.44;;;5.09;96.12
5679;BME280;2862;52.560;13.566;2023-02-20T05:11:39;100833.75;;;5.11;96.19
5679;BME280;2862;52.560;13.566;2023-02-20T05:21:44;100828.25;;;5.14;96.62
5679;BME280;2862;52.560;13.566;2023-02-20T05:32:04;100827.41;;;5.13;98.35
5679;BME280;2862;52.560;13.566;2023-02-20T05:42:09;100810.91;;;5.08;99.83
5679;BME280;2862;52.560;13.566;2023-02-20T05:52:12;100802.03;;;5.09;100.00
5679;BME280;2862;52.560;13.566;2023-02-20T06:02:16;100779.59;;;5.00;100.00
5679;BME280;2862;52.560;13.566;2023-02-20T06:12:19;100748.53;;;5.02;100.00
5679;BME280;2862;52.560;13.566;2023-02-20T06:22:24;100741.06;;;5.09;100.00
5679;BME280;2862;52.560;13.566;2023-02-20T06:32:27;100749.59;;;5.14;100.00
5679;BME280;2862;52.560;13.566;2023-02-20T06:42:31;100725.47;;;5.33;100.00
5679;BME280;2862;52.560;13.566;2023-02-20T06:52:35;100719.69;;;5.55;100.00
5679;BME280;2862;52.560;13.566;2023-02-20T07:02:39;100713.09;;;6.30;100.00
5679;BME280;2862;52.560;13.566;2023-02-20T07:12:41;100676.81;;;5.90;99.15
5679;BME280;2862;52.560;13.566;2023-02-20T07:22:49;100686.88;;;5.99;98.04
5679;BME280;2862;52.560;13.566;2023-02-20T07:32:53;100687.22;;;6.34;95.20
5679;BME280;2862;52.560;13.566;2023-02-20T07:42:57;100683.59;;;6.35;94.14
5679;BME280;2862;52.560;13.566;2023-02-20T07:53:02;100659.81;;;6.33;92.53
5679;BME280;2862;52.560;13.566;2023-02-20T08:03:07;100662.59;;;6.45;91.47
5679;BME280;2862;52.560;13.566;2023-02-20T08:13:10;100629.25;;;6.53;90.75
5679;BME280;2862;52.560;13.566;2023-02-20T08:23:17;100591.44;;;6.75;88.93
5679;BME280;2862;52.560;13.566;2023-02-20T08:33:21;100574.88;;;6.84;87.93
5679;BME280;2862;52.560;13.566;2023-02-20T08:43:26;100553.56;;;6.97;87.10
5679;BME280;2862;52.560;13.566;2023-02-20T08:53:51;100527.53;;;7.02;86.12
5679;BME280;2862;52.560;13.566;2023-02-20T09:03:56;100501.00;;;7.13;85.74
5679;BME280;2862;52.560;13.566;2023-02-20T09:13:59;100477.22;;;7.36;84.39
5679;BME280;2862;52.560;13.566;2023-02-20T09:24:05;100451.69;;;7.57;83.21
5679;BME280;2862;52.560;13.566;2023-02-20T09:34:08;100427.78;;;7.80;81.62
5679;BME280;2862;52.560;13.566;2023-02-20T09:44:16;100416.81;;;8.07;80.39
5679;BME280;2862;52.560;13.566;2023-02-20T09:54:25;100413.97;;;8.43;78.14
5679;BME280;2862;52.560;13.566;2023-02-20T10:04:34;100391.63;;;8.89;75.78
5679;BME280;2862;52.560;13.566;2023-02-20T10:14:50;100380.22;;;8.87;75.33
5679;BME280;2862;52.560;13.566;2023-02-20T10:25:07;100365.03;;;8.67;76.38
5679;BME280;2862;52.560;13.566;2023-02-20T10:35:15;100354.69;;;8.73;76.93
5679;BME280;2862;52.560;13.566;2023-02-20T10:45:25;100344.16;;;9.04;76.07
5679;BME280;2862;52.560;13.566;2023-02-20T10:55:35;100327.31;;;9.36;75.30
5679;BME280;2862;52.560;13.566;2023-02-20T11:05:45;100317.59;;;9.55;75.08
5679;BME280;2862;52.560;13.566;2023-02-20T11:15:53;100307.88;;;9.75;75.11
5679;BME280;2862;52.560;13.566;2023-02-20T11:26:12;100314.47;;;9.50;76.78
5679;BME280;2862;52.560;13.566;2023-02-20T11:36:17;100330.44;;;9.41;78.95
5679;BME280;2862;52.560;13.566;2023-02-20T11:46:23;100313.69;;;9.39;80.71
5679;BME280;2862;52.560;13.566;2023-02-20T11:56:25;100291.25;;;9.41;82.05
5679;BME280;2862;52.560;13.566;2023-02-20T12:06:40;100298.06;;;9.34;83.05
5679;BME280;2862;52.560;13.566;2023-02-20T12:17:01;100289.81;;;9.37;83.81
5679;BME280;2862;52.560;13.566;2023-02-20T12:27:25;100293.06;;;9.41;85.21
5679;BME280;2862;52.560;13.566;2023-02-20T12:37:39;100271.31;;;9.45;85.62
5679;BME280;2862;52.560;13.566;2023-02-20T12:47:51;100270.09;;;9.49;86.12
5679;BME280;2862;52.560;13.566;2023-02-20T12:58:09;100266.22;;;9.63;86.39
5679;BME280;2862;52.560;13.566;2023-02-20T13:08:22;100265.06;;;9.56;87.40
5679;BME280;2862;52.560;13.566;2023-02-20T13:18:33;100261.09;;;9.50;89.42
5679;BME280;2862;52.560;13.566;2023-02-20T13:28:40;100268.28;;;9.29;92.16
5679;BME280;2862;52.560;13.566;2023-02-20T13:49:54;100299.72;;;8.93;95.99
5679;BME280;2862;52.560;13.566;2023-02-20T13:59:59;100294.34;;;8.84;97.99
5679;BME280;2862;52.560;13.566;2023-02-20T14:10:15;100297.00;;;8.84;97.49
5679;BME280;2862;52.560;13.566;2023-02-20T14:20:21;100298.34;;;8.78;97.93
5679;BME280;2862;52.560;13.566;2023-02-20T14:30:26;100306.22;;;8.80;97.55
5679;BME280;2862;52.560;13.566;2023-02-20T14:40:34;100314.81;;;8.83;96.82
5679;BME280;2862;52.560;13.566;2023-02-20T14:50:41;100298.69;;;8.85;96.21
5679;BME280;2862;52.560;13.566;2023-02-20T15:00:45;100288.97;;;8.95;95.07
5679;BME280;2862;52.560;13.566;2023-02-20T15:10:51;100284.06;;;9.00;94.19
5679;BME280;2862;52.560;13.566;2023-02-20T15:20:55;100272.91;;;9.06;93.27
5679;BME280;2862;52.560;13.566;2023-02-20T15:31:05;100265.59;;;9.08;92.71
5679;BME280;2862;52.560;13.566;2023-02-20T15:41:17;100258.91;;;9.14;92.28
5679;BME280;2862;52.560;13.566;2023-02-20T15:51:23;100266.44;;;9.09;93.14
5679;BME280;2862;52.560;13.566;2023-02-20T16:01:26;100258.97;;;9.02;93.78
5679;BME280;2862;52.560;13.566;2023-02-20T16:11:34;100261.50;;;9.04;94.31
5679;BME280;2862;52.560;13.566;2023-02-20T16:21:39;100258.88;;;8.93;96.15
5679;BME280;2862;52.560;13.566;2023-02-20T16:32:17;100271.19;;;8.84;98.30
5679;BME280;2862;52.560;13.566;2023-02-20T16:42:23;100259.22;;;8.78;100.00
5679;BME280;2862;52.560;13.566;2023-02-20T16:52:31;100267.81;;;8.71;100.00
5679;BME280;2862;52.560;13.566;2023-02-20T17:02:34;100283.84;;;8.60;100.00
5679;BME280;2862;52.560;13.566;2023-02-20T17:12:38;100286.28;;;8.63;100.00
5679;BME280;2862;52.560;13.566;2023-02-20T17:22:41;100291.28;;;8.56;100.00
5679;BME280;2862;52.560;13.566;2023-02-20T17:32:47;100291.41;;;8.55;100.00
5679;BME280;2862;52.560;13.566;2023-02-20T17:42:50;100300.97;;;8.46;100.00
5679;BME280;2862;52.560;13.566;2023-02-20T17:52:54;100279.31;;;8.39;100.00
5679;BME280;2862;52.560;13.566;2023-02-20T18:02:57;100303.03;;;8.42;100.00
5679;BME280;2862;52.560;13.566;2023-02-20T18:13:01;100294.19;;;8.42;100.00
5679;BME280;2862;52.560;13.566;2023-02-20T18:23:06;100287.66;;;8.46;100.00
5679;BME280;2862;52.560;13.566;2023-02-20T18:33:12;100283.53;;;8.42;100.00
5679;BME280;2862;52.560;13.566;2023-02-20T18:43:15;100275.16;;;8.35;100.00
5679;BME280;2862;52.560;13.566;2023-02-20T18:53:19;100278.59;;;8.26;100.00
5679;BME280;2862;52.560;13.566;2023-02-20T19:03:22;100261.88;;;8.24;100.00
5679;BME280;2862;52.560;13.566;2023-02-20T19:13:27;100243.38;;;8.22;100.00
5679;BME280;2862;52.560;13.566;2023-02-20T19:23:30;100239.22;;;8.30;100.00
5679;BME280;2862;52.560;13.566;2023-02-20T19:33:34;100244.94;;;8.36;100.00
5679;BME280;2862;52.560;13.566;2023-02-20T19:43:37;100236.69;;;8.39;100.00
5679;BME280;2862;52.560;13.566;2023-02-20T19:53:41;100251.56;;;8.42;100.00
5679;BME280;2862;52.560;13.566;2023-02-20T20:03:45;100243.22;;;8.46;100.00
5679;BME280;2862;52.560;13.566;2023-02-20T20:13:49;100247.66;;;8.57;100.00
5679;BME280;2862;52.560;13.566;2023-02-20T20:23:53;100248.50;;;8.58;100.00
5679;BME280;2862;52.560;13.566;2023-02-20T20:33:57;100238.78;;;8.68;100.00
5679;BME280;2862;52.560;13.566;2023-02-20T20:44:00;100235.84;;;8.71;100.00
5679;BME280;2862;52.560;13.566;2023-02-20T20:54:07;100238.25;;;8.74;100.00
5679;BME280;2862;52.560;13.566;2023-02-20T21:04:11;100239.84;;;8.97;100.00
5679;BME280;2862;52.560;13.566;2023-02-20T21:14:15;100229.00;;;8.89;100.00
5679;BME280;2862;52.560;13.566;2023-02-20T21:24:19;100225.06;;;8.93;100.00
5679;BME280;2862;52.560;13.566;2023-02-20T21:34:24;100225.59;;;8.87;100.00
5679;BME280;2862;52.560;13.566;2023-02-20T21:44:28;100228.59;;;8.94;100.00
5679;BME280;2862;52.560;13.566;2023-02-20T21:54:33;100222.72;;;9.21;100.00
5679;BME280;2862;52.560;13.566;2023-02-20T22:04:39;100223.47;;;9.02;100.00
5679;BME280;2862;52.560;13.566;2023-02-20T22:14:42;100226.28;;;9.00;100.00
5679;BME280;2862;52.560;13.566;2023-02-20T22:25:04;100220.72;;;8.92;100.00
5679;BME280;2862;52.560;13.566;2023-02-20T22:35:27;100235.41;;;8.87;100.00
5679;BME280;2862;52.560;13.566;2023-02-20T22:45:47;100241.41;;;8.79;100.00
5679;BME280;2862;52.560;13.566;2023-02-20T22:56:17;100259.06;;;8.80;100.00
5679;BME280;2862;52.560;13.566;2023-02-20T23:06:37;100256.91;;;8.74;100.00
5679;BME280;2862;52.560;13.566;2023-02-20T23:16:59;100269.53;;;8.72;100.00
5679;BME280;2862;52.560;13.566;2023-02-20T23:27:35;100271.00;;;8.65;100.00
5679;BME280;2862;52.560;13.566;2023-02-20T23:37:57;100275.63;;;8.63;100.00
5679;BME280;2862;52.560;13.566;2023-02-20T23:48:17;100274.06;;;8.60;100.00
5679;BME280;2862;52.560;13.566;2023-02-20T23:58:40;100260.38;;;8.54;100.00
